sensor_id;sensor_type;location;lat;lon;timestamp;temperature;humidity
65406;DHT22;52016;51.228;-2.322;2022-08-20T00:02:18;18.50;54.80
65406;DHT22;52016;51.228;-2.322;2022-08-20T00:06:04;18.50;56.20
65406;DHT22;52016;51.228;-2.322;2022-08-20T00:09:52;18.50;55.20
65406;DHT22;52016;51.228;-2.322;2022-08-20T00:13:38;18.40;55.10
65406;DHT22;52016;51.228;-2.322;2022-08-20T00:17:28;18.40;55.40
65406;DHT22;52016;51.228;-2.322;2022-08-20T00:21:19;18.40;55.40
65406;DHT22;52016;51.228;-2.322;2022-08-20T00:25:02;18.30;55.30
65406;DHT22;52016;51.228;-2.322;2022-08-20T00:28:45;18.30;55.40
65406;DHT22;52016;51.228;-2.322;2022-08-20T00:32:42;18.30;55.60
65406;DHT22;52016;51.228;-2.322;2022-08-20T00:36:25;18.30;56.10
65406;DHT22;52016;51.228;-2.322;2022-08-20T00:40:22;18.20;56.10
65406;DHT22;52016;51.228;-2.322;2022-08-20T00:44:19;18.10;56.30
65406;DHT22;52016;51.228;-2.322;2022-08-20T00:48:04;18.10;56.40
65406;DHT22;52016;51.228;-2.322;2022-08-20T00:51:59;18.00;56.30
65406;DHT22;52016;51.228;-2.322;2022-08-20T00:55:43;18.00;58.00
65406;DHT22;52016;51.228;-2.322;2022-08-20T00:59:28;18.00;56.50
65406;DHT22;52016;51.228;-2.322;2022-08-20T01:03:14;18.00;56.90
65406;DHT22;52016;51.228;-2.322;2022-08-20T01:06:57;17.90;57.00
65406;DHT22;52016;51.228;-2.322;2022-08-20T01:10:42;17.90;56.90
65406;DHT22;52016;51.228;-2.322;2022-08-20T01:14:30;17.90;57.20
65406;DHT22;52016;51.228;-2.322;2022-08-20T01:18:23;17.80;57.20
65406;DHT22;52016;51.228;-2.322;2022-08-20T01:22:06;17.80;58.50
65406;DHT22;52016;51.228;-2.322;2022-08-20T01:26:16;17.70;57.40
65406;DHT22;52016;51.228;-2.322;2022-08-20T01:29:59;17.70;58.70
65406;DHT22;52016;51.228;-2.322;2022-08-20T01:33:48;17.70;57.70
65406;DHT22;52016;51.228;-2.322;2022-08-20T01:37:31;17.60;57.90
65406;DHT22;52016;51.228;-2.322;2022-08-20T01:45:17;17.50;59.90
65406;DHT22;52016;51.228;-2.322;2022-08-20T01:49:07;17.50;58.30
65406;DHT22;52016;51.228;-2.322;2022-08-20T01:56:55;17.40;58.80
65406;DHT22;52016;51.228;-2.322;2022-08-20T02:00:40;17.50;60.60
65406;DHT22;52016;51.228;-2.322;2022-08-20T02:04:27;17.40;58.90
65406;DHT22;52016;51.228;-2.322;2022-08-20T02:08:09;17.40;59.00
65406;DHT22;52016;51.228;-2.322;2022-08-20T02:11:51;17.40;58.90
65406;DHT22;52016;51.228;-2.322;2022-08-20T02:15:38;17.30;58.90
65406;DHT22;52016;51.228;-2.322;2022-08-20T02:19:36;17.30;59.00
65406;DHT22;52016;51.228;-2.322;2022-08-20T02:23:21;17.20;60.90
65406;DHT22;52016;51.228;-2.322;2022-08-20T02:27:05;17.20;59.30
65406;DHT22;52016;51.228;-2.322;2022-08-20T02:30:52;17.20;59.30
65406;DHT22;52016;51.228;-2.322;2022-08-20T02:34:35;17.20;59.50
65406;DHT22;52016;51.228;-2.322;2022-08-20T02:38:22;17.10;59.60
65406;DHT22;52016;51.228;-2.322;2022-08-20T02:42:08;17.10;60.00
65406;DHT22;52016;51.228;-2.322;2022-08-20T02:45:53;17.00;59.80
65406;DHT22;52016;51.228;-2.322;2022-08-20T02:49:37;17.00;59.90
65406;DHT22;52016;51.228;-2.322;2022-08-20T02:53:19;16.90;60.10
65406;DHT22;52016;51.228;-2.322;2022-08-20T02:57:02;16.90;60.20
65406;DHT22;52016;51.228;-2.322;2022-08-20T03:00:45;16.90;60.30
65406;DHT22;52016;51.228;-2.322;2022-08-20T03:04:36;16.80;60.50
65406;DHT22;52016;51.228;-2.322;2022-08-20T03:08:27;16.80;62.20
65406;DHT22;52016;51.228;-2.322;2022-08-20T03:12:09;16.70;60.90
65406;DHT22;52016;51.228;-2.322;2022-08-20T03:15:58;16.70;60.90
65406;DHT22;52016;51.228;-2.322;2022-08-20T03:19:45;16.60;61.20
65406;DHT22;52016;51.228;-2.322;2022-08-20T03:23:27;16.50;61.20
65406;DHT22;52016;51.228;-2.322;2022-08-20T03:27:10;16.50;61.70
65406;DHT22;52016;51.228;-2.322;2022-08-20T03:30:54;16.50;61.40
65406;DHT22;52016;51.228;-2.322;2022-08-20T03:34:37;16.40;61.60
65406;DHT22;52016;51.228;-2.322;2022-08-20T03:38:21;16.40;61.80
65406;DHT22;52016;51.228;-2.322;2022-08-20T03:42:14;16.40;61.90
65406;DHT22;52016;51.228;-2.322;2022-08-20T03:45:58;16.30;62.30
65406;DHT22;52016;51.228;-2.322;2022-08-20T03:49:48;16.30;62.30
65406;DHT22;52016;51.228;-2.322;2022-08-20T03:53:29;16.30;63.80
65406;DHT22;52016;51.228;-2.322;2022-08-20T03:57:14;16.30;62.30
65406;DHT22;52016;51.228;-2.322;2022-08-20T04:00:59;16.30;62.60
65406;DHT22;52016;51.228;-2.322;2022-08-20T04:04:42;16.30;62.50
65406;DHT22;52016;51.228;-2.322;2022-08-20T04:08:26;16.30;62.70
65406;DHT22;52016;51.228;-2.322;2022-08-20T04:12:11;16.30;62.80
65406;DHT22;52016;51.228;-2.322;2022-08-20T04:15:55;16.30;62.80
65406;DHT22;52016;51.228;-2.322;2022-08-20T04:19:38;16.30;62.80
65406;DHT22;52016;51.228;-2.322;2022-08-20T04:23:22;16.30;63.10
65406;DHT22;52016;51.228;-2.322;2022-08-20T04:27:04;16.20;63.20
65406;DHT22;52016;51.228;-2.322;2022-08-20T04:30:55;16.20;63.40
65406;DHT22;52016;51.228;-2.322;2022-08-20T04:34:43;16.20;63.50
65406;DHT22;52016;51.228;-2.322;2022-08-20T04:38:30;16.20;63.90
65406;DHT22;52016;51.228;-2.322;2022-08-20T04:42:31;16.20;63.70
65406;DHT22;52016;51.228;-2.322;2022-08-20T04:46:13;16.20;63.90
65406;DHT22;52016;51.228;-2.322;2022-08-20T04:49:54;16.20;63.90
65406;DHT22;52016;51.228;-2.322;2022-08-20T04:53:52;16.20;63.80
65406;DHT22;52016;51.228;-2.322;2022-08-20T04:57:37;16.20;65.00
65406;DHT22;52016;51.228;-2.322;2022-08-20T05:01:24;16.10;64.20
65406;DHT22;52016;51.228;-2.322;2022-08-20T05:05:10;16.10;64.10
65406;DHT22;52016;51.228;-2.322;2022-08-20T05:08:53;16.10;64.20
65406;DHT22;52016;51.228;-2.322;2022-08-20T05:12:38;16.10;64.30
65406;DHT22;52016;51.228;-2.322;2022-08-20T05:16:20;16.00;64.60
65406;DHT22;52016;51.228;-2.322;2022-08-20T05:20:03;16.00;64.70
65406;DHT22;52016;51.228;-2.322;2022-08-20T05:23:45;16.00;64.70
65406;DHT22;52016;51.228;-2.322;2022-08-20T05:27:29;16.00;64.80
65406;DHT22;52016;51.228;-2.322;2022-08-20T05:31:14;16.00;65.00
65406;DHT22;52016;51.228;-2.322;2022-08-20T05:34:56;16.00;65.10
65406;DHT22;52016;51.228;-2.322;2022-08-20T05:38:38;16.00;65.00
65406;DHT22;52016;51.228;-2.322;2022-08-20T05:42:20;16.00;65.30
65406;DHT22;52016;51.228;-2.322;2022-08-20T05:46:02;16.00;65.20
65406;DHT22;52016;51.228;-2.322;2022-08-20T05:49:44;15.90;65.40
65406;DHT22;52016;51.228;-2.322;2022-08-20T05:53:27;16.00;65.40
65406;DHT22;52016;51.228;-2.322;2022-08-20T05:57:16;15.90;65.50
65406;DHT22;52016;51.228;-2.322;2022-08-20T06:00:59;16.00;66.20
65406;DHT22;52016;51.228;-2.322;2022-08-20T06:04:41;16.00;65.80
65406;DHT22;52016;51.228;-2.322;2022-08-20T06:08:23;16.00;65.70
65406;DHT22;52016;51.228;-2.322;2022-08-20T06:12:07;16.10;65.80
65406;DHT22;52016;51.228;-2.322;2022-08-20T06:15:51;16.10;65.90
65406;DHT22;52016;51.228;-2.322;2022-08-20T06:19:35;16.10;66.20
65406;DHT22;52016;51.228;-2.322;2022-08-20T06:23:18;16.20;66.10
65406;DHT22;52016;51.228;-2.322;2022-08-20T06:27:03;16.30;66.20
65406;DHT22;52016;51.228;-2.322;2022-08-20T06:30:47;16.40;66.20
65406;DHT22;52016;51.228;-2.322;2022-08-20T06:34:29;16.50;66.20
65406;DHT22;52016;51.228;-2.322;2022-08-20T06:38:11;16.60;66.30
65406;DHT22;52016;51.228;-2.322;2022-08-20T06:41:57;16.80;66.50
65406;DHT22;52016;51.228;-2.322;2022-08-20T06:45:40;16.90;66.60
65406;DHT22;52016;51.228;-2.322;2022-08-20T06:49:22;17.10;66.60
65406;DHT22;52016;51.228;-2.322;2022-08-20T06:53:05;17.30;66.60
65406;DHT22;52016;51.228;-2.322;2022-08-20T06:56:50;17.40;66.50
65406;DHT22;52016;51.228;-2.322;2022-08-20T07:00:37;17.50;66.50
65406;DHT22;52016;51.228;-2.322;2022-08-20T07:04:19;17.50;66.40
65406;DHT22;52016;51.228;-2.322;2022-08-20T07:08:02;17.60;66.70
65406;DHT22;52016;51.228;-2.322;2022-08-20T07:11:49;17.80;66.80
65406;DHT22;52016;51.228;-2.322;2022-08-20T07:15:32;17.90;66.80
65406;DHT22;52016;51.228;-2.322;2022-08-20T07:19:14;17.90;66.70
65406;DHT22;52016;51.228;-2.322;2022-08-20T07:22:59;17.90;66.70
65406;DHT22;52016;51.228;-2.322;2022-08-20T07:26:46;17.90;66.80
65406;DHT22;52016;51.228;-2.322;2022-08-20T07:30:34;17.90;66.70
65406;DHT22;52016;51.228;-2.322;2022-08-20T07:34:37;17.90;67.00
65406;DHT22;52016;51.228;-2.322;2022-08-20T07:38:26;17.90;66.80
65406;DHT22;52016;51.228;-2.322;2022-08-20T07:42:09;18.00;66.70
65406;DHT22;52016;51.228;-2.322;2022-08-20T07:46:05;18.10;66.60
65406;DHT22;52016;51.228;-2.322;2022-08-20T07:49:55;18.10;66.50
65406;DHT22;52016;51.228;-2.322;2022-08-20T07:53:42;18.10;66.50
65406;DHT22;52016;51.228;-2.322;2022-08-20T07:57:27;18.00;66.60
65406;DHT22;52016;51.228;-2.322;2022-08-20T08:01:21;18.00;66.60
65406;DHT22;52016;51.228;-2.322;2022-08-20T08:05:06;18.00;66.90
65406;DHT22;52016;51.228;-2.322;2022-08-20T08:08:49;18.10;66.60
65406;DHT22;52016;51.228;-2.322;2022-08-20T08:12:43;18.20;66.50
65406;DHT22;52016;51.228;-2.322;2022-08-20T08:16:30;18.30;67.10
65406;DHT22;52016;51.228;-2.322;2022-08-20T08:20:16;18.30;66.40
65406;DHT22;52016;51.228;-2.322;2022-08-20T08:24:00;18.40;66.50
65406;DHT22;52016;51.228;-2.322;2022-08-20T08:27:46;18.50;66.30
65406;DHT22;52016;51.228;-2.322;2022-08-20T08:31:46;18.50;66.30
65406;DHT22;52016;51.228;-2.322;2022-08-20T08:35:30;18.60;66.20
65406;DHT22;52016;51.228;-2.322;2022-08-20T08:39:13;18.70;66.20
65406;DHT22;52016;51.228;-2.322;2022-08-20T08:42:56;18.80;66.20
65406;DHT22;52016;51.228;-2.322;2022-08-20T08:46:46;18.90;66.20
65406;DHT22;52016;51.228;-2.322;2022-08-20T08:50:55;18.90;66.10
65406;DHT22;52016;51.228;-2.322;2022-08-20T08:54:51;19.10;65.70
65406;DHT22;52016;51.228;-2.322;2022-08-20T08:58:34;19.10;65.70
65406;DHT22;52016;51.228;-2.322;2022-08-20T09:02:21;19.20;65.40
65406;DHT22;52016;51.228;-2.322;2022-08-20T09:06:07;19.30;65.50
65406;DHT22;52016;51.228;-2.322;2022-08-20T09:09:49;19.40;65.30
65406;DHT22;52016;51.228;-2.322;2022-08-20T09:13:33;19.50;65.10
65406;DHT22;52016;51.228;-2.322;2022-08-20T09:17:25;19.60;64.80
65406;DHT22;52016;51.228;-2.322;2022-08-20T09:21:07;19.70;64.50
65406;DHT22;52016;51.228;-2.322;2022-08-20T09:24:50;19.90;64.10
65406;DHT22;52016;51.228;-2.322;2022-08-20T09:28:37;19.90;63.80
65406;DHT22;52016;51.228;-2.322;2022-08-20T09:32:22;20.00;63.50
65406;DHT22;52016;51.228;-2.322;2022-08-20T09:36:06;20.20;62.90
65406;DHT22;52016;51.228;-2.322;2022-08-20T09:40:09;20.40;62.90
65406;DHT22;52016;51.228;-2.322;2022-08-20T09:43:51;20.80;62.30
65406;DHT22;52016;51.228;-2.322;2022-08-20T09:47:35;20.90;61.80
65406;DHT22;52016;51.228;-2.322;2022-08-20T09:51:22;20.80;61.80
65406;DHT22;52016;51.228;-2.322;2022-08-20T09:55:18;20.90;61.90
65406;DHT22;52016;51.228;-2.322;2022-08-20T09:59:00;20.90;61.30
65406;DHT22;52016;51.228;-2.322;2022-08-20T10:02:45;21.00;61.20
65406;DHT22;52016;51.228;-2.322;2022-08-20T10:06:30;21.00;61.10
65406;DHT22;52016;51.228;-2.322;2022-08-20T10:10:18;21.10;60.90
65406;DHT22;52016;51.228;-2.322;2022-08-20T10:14:06;21.10;60.70
65406;DHT22;52016;51.228;-2.322;2022-08-20T10:17:49;21.20;60.50
65406;DHT22;52016;51.228;-2.322;2022-08-20T10:21:32;21.50;60.10
65406;DHT22;52016;51.228;-2.322;2022-08-20T10:25:19;21.60;59.70
65406;DHT22;52016;51.228;-2.322;2022-08-20T10:29:03;21.60;58.40
65406;DHT22;52016;51.228;-2.322;2022-08-20T10:32:45;21.70;59.20
65406;DHT22;52016;51.228;-2.322;2022-08-20T10:36:28;21.90;58.90
65406;DHT22;52016;51.228;-2.322;2022-08-20T10:40:10;21.90;58.50
65406;DHT22;52016;51.228;-2.322;2022-08-20T10:43:52;21.80;58.30
65406;DHT22;52016;51.228;-2.322;2022-08-20T10:47:34;21.60;58.70
65406;DHT22;52016;51.228;-2.322;2022-08-20T10:51:16;21.60;58.90
65406;DHT22;52016;51.228;-2.322;2022-08-20T10:55:00;21.90;58.60
65406;DHT22;52016;51.228;-2.322;2022-08-20T10:58:43;22.00;58.10
65406;DHT22;52016;51.228;-2.322;2022-08-20T11:02:25;22.00;57.80
65406;DHT22;52016;51.228;-2.322;2022-08-20T11:06:08;22.20;57.40
65406;DHT22;52016;51.228;-2.322;2022-08-20T11:09:54;22.40;57.30
65406;DHT22;52016;51.228;-2.322;2022-08-20T11:13:38;22.50;56.80
65406;DHT22;52016;51.228;-2.322;2022-08-20T11:17:29;22.80;56.20
65406;DHT22;52016;51.228;-2.322;2022-08-20T11:21:11;23.10;55.10
65406;DHT22;52016;51.228;-2.322;2022-08-20T11:24:56;23.20;55.00
65406;DHT22;52016;51.228;-2.322;2022-08-20T11:28:40;23.30;54.80
65406;DHT22;52016;51.228;-2.322;2022-08-20T11:32:25;23.40;54.20
65406;DHT22;52016;51.228;-2.322;2022-08-20T11:36:07;23.50;53.50
65406;DHT22;52016;51.228;-2.322;2022-08-20T11:39:50;23.50;53.30
65406;DHT22;52016;51.228;-2.322;2022-08-20T11:43:34;23.40;53.20
65406;DHT22;52016;51.228;-2.322;2022-08-20T11:47:25;23.40;52.90
65406;DHT22;52016;51.228;-2.322;2022-08-20T11:51:08;23.40;49.80
65406;DHT22;52016;51.228;-2.322;2022-08-20T11:54:50;23.40;52.80
65406;DHT22;52016;51.228;-2.322;2022-08-20T11:58:35;23.30;52.60
65406;DHT22;52016;51.228;-2.322;2022-08-20T12:02:17;23.30;52.70
65406;DHT22;52016;51.228;-2.322;2022-08-20T12:06:03;23.40;52.40
65406;DHT22;52016;51.228;-2.322;2022-08-20T12:09:45;23.50;52.20
65406;DHT22;52016;51.228;-2.322;2022-08-20T12:13:34;23.60;51.60
65406;DHT22;52016;51.228;-2.322;2022-08-20T12:17:30;23.70;51.80
65406;DHT22;52016;51.228;-2.322;2022-08-20T12:21:15;23.90;51.70
65406;DHT22;52016;51.228;-2.322;2022-08-20T12:24:57;24.20;51.90
65406;DHT22;52016;51.228;-2.322;2022-08-20T12:28:39;24.50;51.30
65406;DHT22;52016;51.228;-2.322;2022-08-20T12:32:23;24.60;51.40
65406;DHT22;52016;51.228;-2.322;2022-08-20T12:36:06;24.90;50.80
65406;DHT22;52016;51.228;-2.322;2022-08-20T12:39:50;25.20;51.40
65406;DHT22;52016;51.228;-2.322;2022-08-20T12:43:34;25.60;50.70
65406;DHT22;52016;51.228;-2.322;2022-08-20T12:47:27;25.90;49.60
65406;DHT22;52016;51.228;-2.322;2022-08-20T12:51:09;26.30;48.90
65406;DHT22;52016;51.228;-2.322;2022-08-20T12:54:51;26.60;48.90
65406;DHT22;52016;51.228;-2.322;2022-08-20T12:58:33;26.80;48.60
65406;DHT22;52016;51.228;-2.322;2022-08-20T13:02:15;26.90;48.10
65406;DHT22;52016;51.228;-2.322;2022-08-20T13:06:00;26.90;47.30
65406;DHT22;52016;51.228;-2.322;2022-08-20T13:09:51;26.90;47.00
65406;DHT22;52016;51.228;-2.322;2022-08-20T13:13:33;27.20;47.10
65406;DHT22;52016;51.228;-2.322;2022-08-20T13:17:17;27.50;46.80
65406;DHT22;52016;51.228;-2.322;2022-08-20T13:20:59;27.70;46.50
65406;DHT22;52016;51.228;-2.322;2022-08-20T13:24:43;27.70;46.50
65406;DHT22;52016;51.228;-2.322;2022-08-20T13:28:25;27.90;45.50
65406;DHT22;52016;51.228;-2.322;2022-08-20T13:32:09;28.00;45.30
65406;DHT22;52016;51.228;-2.322;2022-08-20T13:35:54;28.20;45.10
65406;DHT22;52016;51.228;-2.322;2022-08-20T13:39:38;28.40;44.30
65406;DHT22;52016;51.228;-2.322;2022-08-20T13:43:20;28.40;44.10
65406;DHT22;52016;51.228;-2.322;2022-08-20T13:47:31;28.00;44.20
65406;DHT22;52016;51.228;-2.322;2022-08-20T13:51:14;27.50;43.40
65406;DHT22;52016;51.228;-2.322;2022-08-20T13:55:03;27.00;44.70
65406;DHT22;52016;51.228;-2.322;2022-08-20T13:58:47;26.60;45.00
65406;DHT22;52016;51.228;-2.322;2022-08-20T14:02:36;26.60;45.20
65406;DHT22;52016;51.228;-2.322;2022-08-20T14:06:20;26.80;45.30
65406;DHT22;52016;51.228;-2.322;2022-08-20T14:10:07;27.70;44.80
65406;DHT22;52016;51.228;-2.322;2022-08-20T14:13:49;28.20;44.00
65406;DHT22;52016;51.228;-2.322;2022-08-20T14:17:39;28.20;43.80
65406;DHT22;52016;51.228;-2.322;2022-08-20T14:21:21;28.00;44.10
65406;DHT22;52016;51.228;-2.322;2022-08-20T14:25:05;28.60;44.00
65406;DHT22;52016;51.228;-2.322;2022-08-20T14:28:55;28.70;43.20
65406;DHT22;52016;51.228;-2.322;2022-08-20T14:32:40;28.40;43.10
65406;DHT22;52016;51.228;-2.322;2022-08-20T14:36:24;27.90;43.40
65406;DHT22;52016;51.228;-2.322;2022-08-20T14:40:13;27.60;43.20
65406;DHT22;52016;51.228;-2.322;2022-08-20T14:43:55;27.10;43.60
65406;DHT22;52016;51.228;-2.322;2022-08-20T14:47:51;26.70;44.00
65406;DHT22;52016;51.228;-2.322;2022-08-20T14:51:34;26.20;44.50
65406;DHT22;52016;51.228;-2.322;2022-08-20T14:55:24;25.90;45.00
65406;DHT22;52016;51.228;-2.322;2022-08-20T14:59:07;25.60;45.40
65406;DHT22;52016;51.228;-2.322;2022-08-20T15:02:49;25.40;45.80
65406;DHT22;52016;51.228;-2.322;2022-08-20T15:06:31;25.40;46.20
65406;DHT22;52016;51.228;-2.322;2022-08-20T15:10:23;26.20;46.40
65406;DHT22;52016;51.228;-2.322;2022-08-20T15:14:11;26.40;46.10
65406;DHT22;52016;51.228;-2.322;2022-08-20T15:17:57;26.20;46.30
65406;DHT22;52016;51.228;-2.322;2022-08-20T15:21:40;26.40;46.40
65406;DHT22;52016;51.228;-2.322;2022-08-20T15:25:34;26.40;46.40
65406;DHT22;52016;51.228;-2.322;2022-08-20T15:29:18;26.20;46.60
65406;DHT22;52016;51.228;-2.322;2022-08-20T15:33:04;26.50;46.90
65406;DHT22;52016;51.228;-2.322;2022-08-20T15:36:56;27.50;46.40
65406;DHT22;52016;51.228;-2.322;2022-08-20T15:40:37;28.30;45.50
65406;DHT22;52016;51.228;-2.322;2022-08-20T15:44:28;28.00;45.40
65406;DHT22;52016;51.228;-2.322;2022-08-20T15:48:16;27.50;45.40
65406;DHT22;52016;51.228;-2.322;2022-08-20T15:52:01;27.10;45.20
65406;DHT22;52016;51.228;-2.322;2022-08-20T15:55:55;27.10;45.60
65406;DHT22;52016;51.228;-2.322;2022-08-20T16:03:56;27.50;44.70
65406;DHT22;52016;51.228;-2.322;2022-08-20T16:12:15;26.50;45.20
65406;DHT22;52016;51.228;-2.322;2022-08-20T16:16:00;26.10;45.70
65406;DHT22;52016;51.228;-2.322;2022-08-20T16:20:10;25.80;46.10
65406;DHT22;52016;51.228;-2.322;2022-08-20T16:23:52;25.60;46.50
65406;DHT22;52016;51.228;-2.322;2022-08-20T16:31:50;25.60;47.10
65406;DHT22;52016;51.228;-2.322;2022-08-20T16:35:44;25.40;47.10
65406;DHT22;52016;51.228;-2.322;2022-08-20T16:39:45;25.20;47.40
65406;DHT22;52016;51.228;-2.322;2022-08-20T16:43:41;25.10;47.70
65406;DHT22;52016;51.228;-2.322;2022-08-20T16:47:29;24.90;48.10
65406;DHT22;52016;51.228;-2.322;2022-08-20T16:51:15;24.80;47.90
65406;DHT22;52016;51.228;-2.322;2022-08-20T16:55:02;24.70;48.10
65406;DHT22;52016;51.228;-2.322;2022-08-20T16:58:44;24.50;48.20
65406;DHT22;52016;51.228;-2.322;2022-08-20T17:02:28;24.40;48.40
65406;DHT22;52016;51.228;-2.322;2022-08-20T17:10:34;24.00;48.80
65406;DHT22;52016;51.228;-2.322;2022-08-20T17:14:19;23.80;49.50
65406;DHT22;52016;51.228;-2.322;2022-08-20T17:18:22;23.50;49.70
65406;DHT22;52016;51.228;-2.322;2022-08-20T17:22:11;23.40;51.00
65406;DHT22;52016;51.228;-2.322;2022-08-20T17:30:23;23.40;51.40
65406;DHT22;52016;51.228;-2.322;2022-08-20T17:38:02;23.10;52.40
65406;DHT22;52016;51.228;-2.322;2022-08-20T17:41:55;23.00;51.70
65406;DHT22;52016;51.228;-2.322;2022-08-20T17:45:47;22.90;52.30
65406;DHT22;52016;51.228;-2.322;2022-08-20T17:49:39;22.80;53.20
65406;DHT22;52016;51.228;-2.322;2022-08-20T17:53:36;22.70;53.50
65406;DHT22;52016;51.228;-2.322;2022-08-20T17:57:29;22.60;53.00
65406;DHT22;52016;51.228;-2.322;2022-08-20T18:01:14;22.40;54.60
65406;DHT22;52016;51.228;-2.322;2022-08-20T18:04:58;22.50;53.20
65406;DHT22;52016;51.228;-2.322;2022-08-20T18:08:56;22.40;53.30
65406;DHT22;52016;51.228;-2.322;2022-08-20T18:12:44;22.30;54.30
65406;DHT22;52016;51.228;-2.322;2022-08-20T18:24:32;22.30;54.40
65406;DHT22;52016;51.228;-2.322;2022-08-20T18:29:02;22.30;53.90
65406;DHT22;52016;51.228;-2.322;2022-08-20T18:33:10;22.30;54.20
65406;DHT22;52016;51.228;-2.322;2022-08-20T18:41:34;22.40;54.20
65406;DHT22;52016;51.228;-2.322;2022-08-20T18:45:47;22.30;53.80
65406;DHT22;52016;51.228;-2.322;2022-08-20T18:49:37;22.20;53.90
65406;DHT22;52016;51.228;-2.322;2022-08-20T18:53:31;22.20;53.50
65406;DHT22;52016;51.228;-2.322;2022-08-20T18:57:38;22.20;54.20
65406;DHT22;52016;51.228;-2.322;2022-08-20T19:01:23;22.10;54.30
65406;DHT22;52016;51.228;-2.322;2022-08-20T19:05:09;22.10;53.70
65406;DHT22;52016;51.228;-2.322;2022-08-20T19:17:42;22.00;53.80
65406;DHT22;52016;51.228;-2.322;2022-08-20T19:21:33;22.00;54.30
65406;DHT22;52016;51.228;-2.322;2022-08-20T19:25:36;22.00;55.00
65406;DHT22;52016;51.228;-2.322;2022-08-20T19:29:51;22.00;55.20
65406;DHT22;52016;51.228;-2.322;2022-08-20T19:33:41;21.90;58.50
65406;DHT22;52016;51.228;-2.322;2022-08-20T19:37:41;21.90;56.10
65406;DHT22;52016;51.228;-2.322;2022-08-20T19:41:42;21.80;56.70
65406;DHT22;52016;51.228;-2.322;2022-08-20T19:45:34;21.70;58.10
65406;DHT22;52016;51.228;-2.322;2022-08-20T19:53:33;21.70;59.20
65406;DHT22;52016;51.228;-2.322;2022-08-20T19:57:26;21.50;57.00
65406;DHT22;52016;51.228;-2.322;2022-08-20T20:01:19;21.50;57.10
65406;DHT22;52016;51.228;-2.322;2022-08-20T20:05:07;21.40;59.30
65406;DHT22;52016;51.228;-2.322;2022-08-20T20:12:50;21.40;57.60
65406;DHT22;52016;51.228;-2.322;2022-08-20T20:16:38;21.40;57.80
65406;DHT22;52016;51.228;-2.322;2022-08-20T20:20:30;21.40;58.80
65406;DHT22;52016;51.228;-2.322;2022-08-20T20:24:26;21.40;58.10
65406;DHT22;52016;51.228;-2.322;2022-08-20T20:28:18;21.30;59.50
65406;DHT22;52016;51.228;-2.322;2022-08-20T20:32:11;21.30;58.60
65406;DHT22;52016;51.228;-2.322;2022-08-20T20:36:10;21.20;58.10
65406;DHT22;52016;51.228;-2.322;2022-08-20T20:44:23;21.10;60.20
65406;DHT22;52016;51.228;-2.322;2022-08-20T20:48:19;20.90;58.60
65406;DHT22;52016;51.228;-2.322;2022-08-20T20:52:05;20.90;59.30
65406;DHT22;52016;51.228;-2.322;2022-08-20T20:55:56;20.70;58.90
65406;DHT22;52016;51.228;-2.322;2022-08-20T20:59:40;20.60;59.00
65406;DHT22;52016;51.228;-2.322;2022-08-20T21:03:32;20.50;59.20
65406;DHT22;52016;51.228;-2.322;2022-08-20T21:07:26;20.40;60.40
65406;DHT22;52016;51.228;-2.322;2022-08-20T21:11:10;20.30;60.40
65406;DHT22;52016;51.228;-2.322;2022-08-20T21:14:54;20.20;59.50
65406;DHT22;52016;51.228;-2.322;2022-08-20T21:18:42;20.20;59.40
65406;DHT22;52016;51.228;-2.322;2022-08-20T21:22:27;20.10;59.40
65406;DHT22;52016;51.228;-2.322;2022-08-20T21:26:09;20.00;59.50
65406;DHT22;52016;51.228;-2.322;2022-08-20T21:29:52;19.90;59.50
65406;DHT22;52016;51.228;-2.322;2022-08-20T21:33:38;19.80;59.70
65406;DHT22;52016;51.228;-2.322;2022-08-20T21:37:20;19.70;59.90
65406;DHT22;52016;51.228;-2.322;2022-08-20T21:41:04;19.70;59.90
65406;DHT22;52016;51.228;-2.322;2022-08-20T21:44:56;19.60;59.90
65406;DHT22;52016;51.228;-2.322;2022-08-20T21:48:38;19.50;61.20
65406;DHT22;52016;51.228;-2.322;2022-08-20T21:52:52;19.40;59.90
65406;DHT22;52016;51.228;-2.322;2022-08-20T21:56:41;19.40;60.80
65406;DHT22;52016;51.228;-2.322;2022-08-20T22:04:35;19.30;61.50
65406;DHT22;52016;51.228;-2.322;2022-08-20T22:08:19;19.20;60.20
65406;DHT22;52016;51.228;-2.322;2022-08-20T22:12:13;19.10;60.20
65406;DHT22;52016;51.228;-2.322;2022-08-20T22:15:59;19.00;60.60
65406;DHT22;52016;51.228;-2.322;2022-08-20T22:19:46;19.00;60.40
65406;DHT22;52016;51.228;-2.322;2022-08-20T22:23:28;18.90;60.50
65406;DHT22;52016;51.228;-2.322;2022-08-20T22:27:13;18.90;60.70
65406;DHT22;52016;51.228;-2.322;2022-08-20T22:30:55;18.90;60.70
65406;DHT22;52016;51.228;-2.322;2022-08-20T22:34:43;18.80;60.80
65406;DHT22;52016;51.228;-2.322;2022-08-20T22:38:25;18.80;61.10
65406;DHT22;52016;51.228;-2.322;2022-08-20T22:42:09;18.80;61.00
65406;DHT22;52016;51.228;-2.322;2022-08-20T22:45:56;18.80;60.60
65406;DHT22;52016;51.228;-2.322;2022-08-20T22:49:39;18.80;60.70
65406;DHT22;52016;51.228;-2.322;2022-08-20T22:53:30;18.70;60.80
65406;DHT22;52016;51.228;-2.322;2022-08-20T22:57:22;18.70;62.00
65406;DHT22;52016;51.228;-2.322;2022-08-20T23:01:06;18.60;61.10
65406;DHT22;52016;51.228;-2.322;2022-08-20T23:04:51;18.60;61.00
65406;DHT22;52016;51.228;-2.322;2022-08-20T23:08:36;18.50;61.10
65406;DHT22;52016;51.228;-2.322;2022-08-20T23:12:18;18.50;61.20
65406;DHT22;52016;51.228;-2.322;2022-08-20T23:16:00;18.40;61.30
65406;DHT22;52016;51.228;-2.322;2022-08-20T23:19:43;18.30;61.50
65406;DHT22;52016;51.228;-2.322;2022-08-20T23:23:26;18.20;61.70
65406;DHT22;52016;51.228;-2.322;2022-08-20T23:27:12;18.20;61.90
65406;DHT22;52016;51.228;-2.322;2022-08-20T23:30:56;18.10;62.10
65406;DHT22;52016;51.228;-2.322;2022-08-20T23:34:39;18.10;62.10
65406;DHT22;52016;51.228;-2.322;2022-08-20T23:38:24;18.10;62.10
65406;DHT22;52016;51.228;-2.322;2022-08-20T23:42:14;18.10;62.20
65406;DHT22;52016;51.228;-2.322;2022-08-20T23:46:03;18.00;63.00
65406;DHT22;52016;51.228;-2.322;2022-08-20T23:49:46;18.00;62.70
65406;DHT22;52016;51.228;-2.322;2022-08-20T23:53:29;17.90;62.40
65406;DHT22;52016;51.228;-2.322;2022-08-20T23:57:11;17.90;62.40
